Flight Track Log - Related Links

Times and Time Zones

All times are in EDT time to prevent confusion due to time zone crossing. See the AAR8731 flight status page for this flight to view local times or setup timezone preferences in your user account.

Time Position Orientation Groundspeed Altitude Reporting Facility
EDT Latitude Longitude Course Direction KTS MPH feet Rate Location/Type
Fri 06:34:00 PM 37.3315 126.8617 166° South  Level Estimated
Fri 06:35:00 PM 37.2559 126.8853 166° South  Level Estimated
Fri 06:35:53 PM 37.4350 126.6650 166° South 12,600  Level FlightAware ADS-B
Fri 06:36:00 PM 37.1803 126.9089 166° South  Level Estimated
Fri 06:36:42 PM 37.3620 126.6810 170° South 14,900  Level FlightAware ADS-B
Fri 06:37:37 PM 37.2800 126.7000 170° South 17,300 2,618 Climbing FlightAware ADS-B
Fri 06:38:18 PM 37.2150 126.7150 170° South 18,600 1,902 Climbing FlightAware ADS-B
Fri 06:40:00 PM 37.0885 126.7644 163° South  Level Estimated
Fri 06:41:00 PM 37.0141 126.7934 163° South  Level Estimated
Fri 06:42:00 PM 36.9397 126.8223 163° South  Level Estimated
Fri 06:43:00 PM 36.8653 126.8512 163° South  Level Estimated
Fri 06:44:00 PM 36.7909 126.8800 163° South  Level Estimated
Fri 06:45:00 PM 36.7165 126.9088 163° South  Level Estimated
Fri 06:46:00 PM 36.6421 126.9374 163° South  Level Estimated
Fri 06:47:00 PM 36.5676 126.9661 163° South  Level Estimated
Fri 06:48:00 PM 36.4932 126.9947 163° South  Level Estimated
Fri 06:49:00 PM 36.4187 127.0232 163° South  Level Estimated
Fri 06:50:00 PM 36.3442 127.0517 163° South  Level Estimated
Fri 06:51:00 PM 36.2698 127.0801 163° South  Level Estimated
Fri 06:52:00 PM 36.1953 127.1085 163° South  Level Estimated
Fri 06:53:00 PM 36.1208 127.1368 163° South  Level Estimated
Fri 06:54:00 PM 36.0463 127.1651 163° South  Level Estimated
Fri 06:55:00 PM 35.9719 127.1933 163° South  Level Estimated
Fri 06:56:00 PM 35.8974 127.2215 163° South  Level Estimated
Fri 06:57:00 PM 35.8228 127.2496 163° South  Level Estimated
Fri 06:58:00 PM 35.7483 127.2776 163° South  Level Estimated
Fri 06:59:00 PM 35.6738 127.3056 163° South  Level Estimated
Fri 07:00:00 PM 35.5993 127.3336 163° South  Level Estimated
Fri 07:01:00 PM 35.5247 127.3615 163° South  Level Estimated
Fri 07:02:00 PM 35.4502 127.3893 163° South  Level Estimated
Fri 07:03:00 PM 35.3757 127.4171 163° South  Level Estimated
Fri 07:04:00 PM 35.3011 127.4448 163° South  Level Estimated
Fri 07:05:00 PM 35.2266 127.4725 163° South  Level Estimated
Fri 07:06:00 PM 35.1520 127.5002 163° South  Level Estimated
Fri 07:07:00 PM 35.0774 127.5278 163° South  Level Estimated
Fri 07:08:00 PM 35.0028 127.5553 163° South  Level Estimated
Fri 07:09:00 PM 34.9283 127.5828 163° South  Level Estimated
Fri 07:10:00 PM 34.8537 127.6102 163° South  Level Estimated
Fri 07:11:00 PM 34.8398 127.6153 163° South  Level Estimated
Fri 07:12:00 PM 34.8398 127.6153 180° South  Level Estimated
Fri 07:13:00 PM 34.8398 127.6153 180° South  Level Estimated
Fri 07:14:00 PM 34.8398 127.6153 180° South  Level Estimated
Fri 07:15:00 PM 34.8398 127.6153 180° South  Level Estimated
Fri 07:16:00 PM 34.8398 127.6153 180° South  Level Estimated
Fri 07:17:00 PM 34.8398 127.6153 180° South  Level Estimated
Fri 07:18:00 PM 34.8398 127.6153 180° South  Level Estimated
Fri 07:19:00 PM 34.8398 127.6153 180° South  Level Estimated

Login

Don't have an account? Register now (free) for customized features, flight alerts, and more!